Pagrindinis puslapis
METAR-TAF:

METAR-TAF

Oro uostai :

Savoonga, Aliaska, Jungtinės Amerikos Valstijos

platuma: 63-41N, ilguma: 170-30W, Aukštis: 16 m

Dabartinis oras

Ataskaita buvo paskelbta 15 minutes, ne 04:27 UTC
Vėjas 23 kt iš Pietryčių
Temperatūra -7°C
Drėgmė 93%
Slėgis 990 hPa
Matomumas: 0.8 km
Mažai debesys ne aukštis 300 ft
Su prošvaistėmis ne aukštis 900 ft
Apsiniaukę ne aukštis 3100 ft
nežinomas, įšaldymas rūko

METAR: PASA 200427Z AUTO 14023KT 1/2SM UP FZFG FEW003 BKN009 OVC031 M07/M08 A2924 RMK AO2 PK WND 14026/0427 WSHFT 0413 UPB15SNE15 CIG 007V011 P0000 FZRANO

Laikas: 19:42 (04:42 UTC)


TAF: trūkstamas

Orai ataskaitas ir orų prognozės (METAR, TAF).

turimą stotys yra geltonos ir raudonos taškus žemėlapyje.

Perkelti pele per norėdami pamatyti stoties vardą.

Tada spustelėkite, norėdami matyti oro stebėjimo ir prognozės.

Norėdami pakeisti žemėlapį: spustelėkite ant žalios mygtukų su juodo kryžiaus žemyn,; žalią mygtuką su brūkšneliu, jei norite nutolinti; arba žalių rodyklių gretimoms žemėlapius.


METAR-TAF: